sensor_id;sensor_type;location;lat;lon;timestamp;P1;durP1;ratioP1;P2;durP2;ratioP2
59054;SDS011;44845;51.444;7.460;2024-01-06T00:01:45;4.55;;;3.78;;
59054;SDS011;44845;51.444;7.460;2024-01-06T00:04:11;4.25;;;3.85;;
59054;SDS011;44845;51.444;7.460;2024-01-06T00:06:36;5.88;;;4.10;;
59054;SDS011;44845;51.444;7.460;2024-01-06T00:09:01;4.13;;;3.72;;
59054;SDS011;44845;51.444;7.460;2024-01-06T00:11:27;4.60;;;4.20;;
59054;SDS011;44845;51.444;7.460;2024-01-06T00:13:52;5.85;;;4.28;;
59054;SDS011;44845;51.444;7.460;2024-01-06T00:16:18;5.30;;;4.70;;
59054;SDS011;44845;51.444;7.460;2024-01-06T00:18:44;4.93;;;4.10;;
59054;SDS011;44845;51.444;7.460;2024-01-06T00:21:10;5.10;;;4.60;;
59054;SDS011;44845;51.444;7.460;2024-01-06T00:23:35;7.25;;;4.63;;
59054;SDS011;44845;51.444;7.460;2024-01-06T00:26:01;6.47;;;4.80;;
59054;SDS011;44845;51.444;7.460;2024-01-06T00:28:27;6.00;;;4.88;;
59054;SDS011;44845;51.444;7.460;2024-01-06T00:30:52;5.82;;;5.25;;
59054;SDS011;44845;51.444;7.460;2024-01-06T00:33:18;5.25;;;4.75;;
59054;SDS011;44845;51.444;7.460;2024-01-06T00:35:43;8.18;;;5.88;;
59054;SDS011;44845;51.444;7.460;2024-01-06T00:38:09;5.53;;;5.03;;
59054;SDS011;44845;51.444;7.460;2024-01-06T00:40:34;7.63;;;5.53;;
59054;SDS011;44845;51.444;7.460;2024-01-06T00:42:59;7.10;;;5.03;;
59054;SDS011;44845;51.444;7.460;2024-01-06T00:45:25;6.45;;;5.70;;
59054;SDS011;44845;51.444;7.460;2024-01-06T00:47:50;6.45;;;5.40;;
59054;SDS011;44845;51.444;7.460;2024-01-06T00:50:15;6.05;;;5.40;;
59054;SDS011;44845;51.444;7.460;2024-01-06T00:52:43;9.77;;;5.50;;
59054;SDS011;44845;51.444;7.460;2024-01-06T00:55:08;5.70;;;5.15;;
59054;SDS011;44845;51.444;7.460;2024-01-06T00:57:34;7.20;;;5.20;;
59054;SDS011;44845;51.444;7.460;2024-01-06T00:59:59;6.28;;;5.68;;
59054;SDS011;44845;51.444;7.460;2024-01-06T01:02:24;9.43;;;5.38;;
59054;SDS011;44845;51.444;7.460;2024-01-06T01:04:50;7.22;;;6.25;;
59054;SDS011;44845;51.444;7.460;2024-01-06T01:07:15;7.63;;;5.20;;
59054;SDS011;44845;51.444;7.460;2024-01-06T01:09:41;7.72;;;5.63;;
59054;SDS011;44845;51.444;7.460;2024-01-06T01:12:08;6.88;;;5.20;;
59054;SDS011;44845;51.444;7.460;2024-01-06T01:14:35;6.28;;;5.68;;
59054;SDS011;44845;51.444;7.460;2024-01-06T01:17:01;8.13;;;6.60;;
59054;SDS011;44845;51.444;7.460;2024-01-06T01:19:26;7.60;;;5.30;;
59054;SDS011;44845;51.444;7.460;2024-01-06T01:21:51;6.78;;;5.88;;
59054;SDS011;44845;51.444;7.460;2024-01-06T01:24:20;6.13;;;5.53;;
59054;SDS011;44845;51.444;7.460;2024-01-06T01:26:47;7.45;;;5.63;;
59054;SDS011;44845;51.444;7.460;2024-01-06T01:29:12;6.90;;;5.88;;
59054;SDS011;44845;51.444;7.460;2024-01-06T01:31:37;7.20;;;5.43;;
59054;SDS011;44845;51.444;7.460;2024-01-06T01:34:03;7.18;;;5.20;;
59054;SDS011;44845;51.444;7.460;2024-01-06T01:36:28;8.02;;;5.93;;
59054;SDS011;44845;51.444;7.460;2024-01-06T01:38:53;6.40;;;5.35;;
59054;SDS011;44845;51.444;7.460;2024-01-06T01:41:19;8.15;;;5.65;;
59054;SDS011;44845;51.444;7.460;2024-01-06T01:43:45;9.15;;;5.85;;
59054;SDS011;44845;51.444;7.460;2024-01-06T01:46:10;7.82;;;5.70;;
59054;SDS011;44845;51.444;7.460;2024-01-06T01:48:36;7.30;;;5.38;;
59054;SDS011;44845;51.444;7.460;2024-01-06T01:51:02;7.30;;;6.15;;
59054;SDS011;44845;51.444;7.460;2024-01-06T01:53:27;7.78;;;5.70;;
59054;SDS011;44845;51.444;7.460;2024-01-06T01:55:53;8.40;;;5.53;;
59054;SDS011;44845;51.444;7.460;2024-01-06T01:58:19;7.43;;;5.68;;
59054;SDS011;44845;51.444;7.460;2024-01-06T02:00:44;8.25;;;5.60;;
59054;SDS011;44845;51.444;7.460;2024-01-06T02:03:10;7.97;;;6.25;;
59054;SDS011;44845;51.444;7.460;2024-01-06T02:05:37;8.65;;;5.75;;
59054;SDS011;44845;51.444;7.460;2024-01-06T02:08:03;9.27;;;6.38;;
59054;SDS011;44845;51.444;7.460;2024-01-06T02:10:29;9.57;;;6.45;;
59054;SDS011;44845;51.444;7.460;2024-01-06T02:12:54;8.15;;;6.47;;
59054;SDS011;44845;51.444;7.460;2024-01-06T02:15:19;7.55;;;5.97;;
59054;SDS011;44845;51.444;7.460;2024-01-06T02:17:45;8.75;;;6.40;;
59054;SDS011;44845;51.444;7.460;2024-01-06T02:20:11;8.73;;;6.22;;
59054;SDS011;44845;51.444;7.460;2024-01-06T02:22:37;7.70;;;6.30;;
59054;SDS011;44845;51.444;7.460;2024-01-06T02:25:03;8.95;;;6.50;;
59054;SDS011;44845;51.444;7.460;2024-01-06T02:27:37;8.27;;;6.25;;
59054;SDS011;44845;51.444;7.460;2024-01-06T02:30:02;7.93;;;5.75;;
59054;SDS011;44845;51.444;7.460;2024-01-06T02:32:27;6.47;;;5.55;;
59054;SDS011;44845;51.444;7.460;2024-01-06T02:34:53;7.97;;;6.05;;
59054;SDS011;44845;51.444;7.460;2024-01-06T02:37:18;9.02;;;5.95;;
59054;SDS011;44845;51.444;7.460;2024-01-06T02:39:43;6.32;;;5.45;;
59054;SDS011;44845;51.444;7.460;2024-01-06T02:42:09;6.70;;;5.75;;
59054;SDS011;44845;51.444;7.460;2024-01-06T02:44:34;8.52;;;5.50;;
59054;SDS011;44845;51.444;7.460;2024-01-06T02:46:59;5.80;;;4.90;;
59054;SDS011;44845;51.444;7.460;2024-01-06T02:49:25;5.30;;;3.97;;
59054;SDS011;44845;51.444;7.460;2024-01-06T02:51:50;6.43;;;3.92;;
59054;SDS011;44845;51.444;7.460;2024-01-06T02:54:16;5.97;;;4.07;;
59054;SDS011;44845;51.444;7.460;2024-01-06T02:56:41;4.75;;;3.92;;
59054;SDS011;44845;51.444;7.460;2024-01-06T02:59:06;5.82;;;3.85;;
59054;SDS011;44845;51.444;7.460;2024-01-06T03:01:31;5.55;;;3.80;;
59054;SDS011;44845;51.444;7.460;2024-01-06T03:03:57;4.00;;;3.60;;
59054;SDS011;44845;51.444;7.460;2024-01-06T03:06:22;4.40;;;3.72;;
59054;SDS011;44845;51.444;7.460;2024-01-06T03:08:48;4.95;;;3.83;;
59054;SDS011;44845;51.444;7.460;2024-01-06T03:11:13;5.13;;;4.20;;
59054;SDS011;44845;51.444;7.460;2024-01-06T03:13:39;5.10;;;4.15;;
59054;SDS011;44845;51.444;7.460;2024-01-06T03:16:05;5.15;;;4.53;;
59054;SDS011;44845;51.444;7.460;2024-01-06T03:18:30;5.43;;;4.28;;
59054;SDS011;44845;51.444;7.460;2024-01-06T03:20:55;5.53;;;4.30;;
59054;SDS011;44845;51.444;7.460;2024-01-06T03:23:21;7.05;;;4.97;;
59054;SDS011;44845;51.444;7.460;2024-01-06T03:25:46;5.78;;;4.90;;
59054;SDS011;44845;51.444;7.460;2024-01-06T03:28:11;6.70;;;4.95;;
59054;SDS011;44845;51.444;7.460;2024-01-06T03:30:37;6.60;;;5.22;;
59054;SDS011;44845;51.444;7.460;2024-01-06T03:33:02;7.32;;;5.40;;
59054;SDS011;44845;51.444;7.460;2024-01-06T03:35:28;8.15;;;6.32;;
59054;SDS011;44845;51.444;7.460;2024-01-06T03:37:53;8.52;;;6.18;;
59054;SDS011;44845;51.444;7.460;2024-01-06T03:40:18;8.02;;;5.82;;
59054;SDS011;44845;51.444;7.460;2024-01-06T03:42:44;9.15;;;6.55;;
59054;SDS011;44845;51.444;7.460;2024-01-06T03:45:09;10.48;;;8.05;;
59054;SDS011;44845;51.444;7.460;2024-01-06T03:47:34;11.35;;;8.38;;
59054;SDS011;44845;51.444;7.460;2024-01-06T03:50:00;11.68;;;8.80;;
59054;SDS011;44845;51.444;7.460;2024-01-06T03:52:25;12.15;;;8.93;;
59054;SDS011;44845;51.444;7.460;2024-01-06T03:54:51;11.55;;;8.13;;
59054;SDS011;44845;51.444;7.460;2024-01-06T03:57:16;13.07;;;9.23;;
59054;SDS011;44845;51.444;7.460;2024-01-06T03:59:42;13.30;;;9.45;;
59054;SDS011;44845;51.444;7.460;2024-01-06T04:02:07;12.25;;;8.90;;
59054;SDS011;44845;51.444;7.460;2024-01-06T04:04:33;12.93;;;9.52;;
59054;SDS011;44845;51.444;7.460;2024-01-06T04:06:58;15.13;;;10.20;;
59054;SDS011;44845;51.444;7.460;2024-01-06T04:09:23;13.02;;;9.93;;
59054;SDS011;44845;51.444;7.460;2024-01-06T04:11:49;14.60;;;9.43;;
59054;SDS011;44845;51.444;7.460;2024-01-06T04:14:14;14.43;;;10.32;;
59054;SDS011;44845;51.444;7.460;2024-01-06T04:16:39;17.20;;;10.23;;
59054;SDS011;44845;51.444;7.460;2024-01-06T04:19:05;15.30;;;10.23;;
59054;SDS011;44845;51.444;7.460;2024-01-06T04:21:32;16.52;;;10.32;;
59054;SDS011;44845;51.444;7.460;2024-01-06T04:23:57;14.07;;;9.63;;
59054;SDS011;44845;51.444;7.460;2024-01-06T04:26:23;16.42;;;10.95;;
59054;SDS011;44845;51.444;7.460;2024-01-06T04:28:48;17.42;;;10.43;;
59054;SDS011;44845;51.444;7.460;2024-01-06T04:31:14;15.38;;;10.73;;
59054;SDS011;44845;51.444;7.460;2024-01-06T04:33:39;17.75;;;10.88;;
59054;SDS011;44845;51.444;7.460;2024-01-06T04:36:05;16.05;;;10.10;;
59054;SDS011;44845;51.444;7.460;2024-01-06T04:38:31;17.85;;;10.32;;
59054;SDS011;44845;51.444;7.460;2024-01-06T04:40:56;16.80;;;10.82;;
59054;SDS011;44845;51.444;7.460;2024-01-06T04:43:22;15.75;;;10.30;;
59054;SDS011;44845;51.444;7.460;2024-01-06T04:45:47;15.68;;;9.73;;
59054;SDS011;44845;51.444;7.460;2024-01-06T04:48:13;16.50;;;9.93;;
59054;SDS011;44845;51.444;7.460;2024-01-06T04:50:38;13.45;;;9.27;;
59054;SDS011;44845;51.444;7.460;2024-01-06T04:53:03;14.15;;;9.48;;
59054;SDS011;44845;51.444;7.460;2024-01-06T04:55:28;14.65;;;9.40;;
59054;SDS011;44845;51.444;7.460;2024-01-06T04:57:54;15.10;;;9.32;;
59054;SDS011;44845;51.444;7.460;2024-01-06T05:00:19;13.85;;;9.10;;
59054;SDS011;44845;51.444;7.460;2024-01-06T05:02:45;13.90;;;8.48;;
59054;SDS011;44845;51.444;7.460;2024-01-06T05:05:10;14.70;;;9.27;;
59054;SDS011;44845;51.444;7.460;2024-01-06T05:07:35;14.23;;;9.32;;
59054;SDS011;44845;51.444;7.460;2024-01-06T05:10:01;14.18;;;8.85;;
59054;SDS011;44845;51.444;7.460;2024-01-06T05:12:27;13.20;;;8.40;;
59054;SDS011;44845;51.444;7.460;2024-01-06T05:14:52;13.15;;;8.82;;
59054;SDS011;44845;51.444;7.460;2024-01-06T05:17:17;14.73;;;9.18;;
59054;SDS011;44845;51.444;7.460;2024-01-06T05:19:43;14.10;;;8.38;;
59054;SDS011;44845;51.444;7.460;2024-01-06T05:22:08;12.63;;;8.05;;
59054;SDS011;44845;51.444;7.460;2024-01-06T05:24:33;13.20;;;7.90;;
59054;SDS011;44845;51.444;7.460;2024-01-06T05:26:59;12.75;;;7.93;;
59054;SDS011;44845;51.444;7.460;2024-01-06T05:29:24;13.68;;;8.52;;
59054;SDS011;44845;51.444;7.460;2024-01-06T05:31:51;13.45;;;8.25;;
59054;SDS011;44845;51.444;7.460;2024-01-06T05:34:16;13.98;;;8.05;;
59054;SDS011;44845;51.444;7.460;2024-01-06T05:36:41;13.57;;;8.25;;
59054;SDS011;44845;51.444;7.460;2024-01-06T05:39:07;13.65;;;8.25;;
59054;SDS011;44845;51.444;7.460;2024-01-06T05:41:39;12.45;;;7.82;;
59054;SDS011;44845;51.444;7.460;2024-01-06T05:44:04;14.60;;;7.95;;
59054;SDS011;44845;51.444;7.460;2024-01-06T05:46:30;13.40;;;8.07;;
59054;SDS011;44845;51.444;7.460;2024-01-06T05:48:55;13.75;;;8.13;;
59054;SDS011;44845;51.444;7.460;2024-01-06T05:51:21;13.15;;;8.02;;
59054;SDS011;44845;51.444;7.460;2024-01-06T05:53:47;13.02;;;8.32;;
59054;SDS011;44845;51.444;7.460;2024-01-06T05:56:21;13.93;;;8.40;;
59054;SDS011;44845;51.444;7.460;2024-01-06T05:58:48;14.48;;;8.23;;
59054;SDS011;44845;51.444;7.460;2024-01-06T06:01:13;13.43;;;9.05;;
59054;SDS011;44845;51.444;7.460;2024-01-06T06:03:39;15.65;;;8.40;;
59054;SDS011;44845;51.444;7.460;2024-01-06T06:06:04;13.90;;;8.95;;
59054;SDS011;44845;51.444;7.460;2024-01-06T06:08:30;14.43;;;9.20;;
59054;SDS011;44845;51.444;7.460;2024-01-06T06:10:55;14.05;;;8.60;;
59054;SDS011;44845;51.444;7.460;2024-01-06T06:13:29;13.43;;;8.18;;
59054;SDS011;44845;51.444;7.460;2024-01-06T06:15:55;12.65;;;8.05;;
59054;SDS011;44845;51.444;7.460;2024-01-06T06:18:21;12.80;;;7.93;;
59054;SDS011;44845;51.444;7.460;2024-01-06T06:20:46;13.00;;;8.27;;
59054;SDS011;44845;51.444;7.460;2024-01-06T06:23:12;12.07;;;7.78;;
59054;SDS011;44845;51.444;7.460;2024-01-06T06:25:38;14.48;;;7.93;;
59054;SDS011;44845;51.444;7.460;2024-01-06T06:28:04;12.90;;;8.63;;
59054;SDS011;44845;51.444;7.460;2024-01-06T06:30:29;14.10;;;8.75;;
59054;SDS011;44845;51.444;7.460;2024-01-06T06:32:54;14.38;;;8.82;;
59054;SDS011;44845;51.444;7.460;2024-01-06T06:35:20;14.88;;;9.00;;
59054;SDS011;44845;51.444;7.460;2024-01-06T06:37:45;14.70;;;9.27;;
59054;SDS011;44845;51.444;7.460;2024-01-06T06:40:10;15.00;;;8.88;;
59054;SDS011;44845;51.444;7.460;2024-01-06T06:42:37;15.82;;;9.05;;
59054;SDS011;44845;51.444;7.460;2024-01-06T06:45:03;15.00;;;9.15;;
59054;SDS011;44845;51.444;7.460;2024-01-06T06:47:28;16.85;;;9.10;;
59054;SDS011;44845;51.444;7.460;2024-01-06T06:49:54;14.32;;;8.70;;
59054;SDS011;44845;51.444;7.460;2024-01-06T06:52:19;16.70;;;9.80;;
59054;SDS011;44845;51.444;7.460;2024-01-06T06:54:44;14.57;;;8.88;;
59054;SDS011;44845;51.444;7.460;2024-01-06T06:57:10;13.85;;;8.85;;
59054;SDS011;44845;51.444;7.460;2024-01-06T06:59:36;18.77;;;9.27;;
59054;SDS011;44845;51.444;7.460;2024-01-06T07:02:02;15.80;;;9.48;;
59054;SDS011;44845;51.444;7.460;2024-01-06T07:04:27;15.95;;;8.95;;
59054;SDS011;44845;51.444;7.460;2024-01-06T07:06:52;15.65;;;9.55;;
59054;SDS011;44845;51.444;7.460;2024-01-06T07:09:18;15.20;;;8.63;;
59054;SDS011;44845;51.444;7.460;2024-01-06T07:11:43;16.15;;;9.38;;
59054;SDS011;44845;51.444;7.460;2024-01-06T07:14:10;15.68;;;9.05;;
59054;SDS011;44845;51.444;7.460;2024-01-06T07:16:35;13.93;;;8.90;;
59054;SDS011;44845;51.444;7.460;2024-01-06T07:19:00;14.82;;;9.55;;
59054;SDS011;44845;51.444;7.460;2024-01-06T07:21:26;14.07;;;8.75;;
59054;SDS011;44845;51.444;7.460;2024-01-06T07:23:51;14.00;;;9.02;;
59054;SDS011;44845;51.444;7.460;2024-01-06T07:26:16;12.77;;;8.35;;
59054;SDS011;44845;51.444;7.460;2024-01-06T07:28:42;12.73;;;8.52;;
59054;SDS011;44845;51.444;7.460;2024-01-06T07:31:08;11.85;;;7.35;;
59054;SDS011;44845;51.444;7.460;2024-01-06T07:33:33;14.48;;;8.63;;
59054;SDS011;44845;51.444;7.460;2024-01-06T07:35:58;12.50;;;8.10;;
59054;SDS011;44845;51.444;7.460;2024-01-06T07:38:24;12.77;;;8.15;;
59054;SDS011;44845;51.444;7.460;2024-01-06T07:40:49;11.55;;;8.15;;
59054;SDS011;44845;51.444;7.460;2024-01-06T07:43:44;14.32;;;8.75;;
59054;SDS011;44845;51.444;7.460;2024-01-06T07:46:16;12.80;;;7.97;;
59054;SDS011;44845;51.444;7.460;2024-01-06T07:48:44;13.32;;;8.20;;
59054;SDS011;44845;51.444;7.460;2024-01-06T07:51:25;12.68;;;7.40;;
59054;SDS011;44845;51.444;7.460;2024-01-06T07:56:18;11.90;;;7.68;;
59054;SDS011;44845;51.444;7.460;2024-01-06T07:58:46;11.68;;;7.68;;
59054;SDS011;44845;51.444;7.460;2024-01-06T08:01:18;13.00;;;8.35;;
59054;SDS011;44845;51.444;7.460;2024-01-06T08:03:46;15.23;;;8.57;;
59054;SDS011;44845;51.444;7.460;2024-01-06T08:06:18;13.48;;;8.60;;
59054;SDS011;44845;51.444;7.460;2024-01-06T08:09:10;13.63;;;8.18;;
59054;SDS011;44845;51.444;7.460;2024-01-06T08:11:39;14.07;;;9.07;;
59054;SDS011;44845;51.444;7.460;2024-01-06T08:14:04;15.18;;;9.73;;
59054;SDS011;44845;51.444;7.460;2024-01-06T08:16:33;15.70;;;9.50;;
59054;SDS011;44845;51.444;7.460;2024-01-06T08:18:59;15.00;;;9.30;;
59054;SDS011;44845;51.444;7.460;2024-01-06T08:21:51;15.55;;;9.45;;
59054;SDS011;44845;51.444;7.460;2024-01-06T08:27:28;14.80;;;8.73;;
59054;SDS011;44845;51.444;7.460;2024-01-06T08:29:53;14.90;;;9.77;;
59054;SDS011;44845;51.444;7.460;2024-01-06T08:32:19;16.95;;;10.88;;
59054;SDS011;44845;51.444;7.460;2024-01-06T08:34:44;17.33;;;10.68;;
59054;SDS011;44845;51.444;7.460;2024-01-06T08:37:09;18.90;;;11.45;;
59054;SDS011;44845;51.444;7.460;2024-01-06T08:39:35;17.75;;;11.20;;
59054;SDS011;44845;51.444;7.460;2024-01-06T08:42:00;19.20;;;12.05;;
59054;SDS011;44845;51.444;7.460;2024-01-06T08:44:25;23.27;;;12.73;;
59054;SDS011;44845;51.444;7.460;2024-01-06T08:46:50;21.90;;;12.63;;
59054;SDS011;44845;51.444;7.460;2024-01-06T08:49:18;23.23;;;12.93;;
59054;SDS011;44845;51.444;7.460;2024-01-06T08:51:43;29.15;;;12.10;;
59054;SDS011;44845;51.444;7.460;2024-01-06T08:54:09;22.15;;;12.02;;
59054;SDS011;44845;51.444;7.460;2024-01-06T08:56:34;21.02;;;11.88;;
59054;SDS011;44845;51.444;7.460;2024-01-06T08:58:59;21.00;;;11.90;;
59054;SDS011;44845;51.444;7.460;2024-01-06T09:01:25;20.13;;;11.65;;
59054;SDS011;44845;51.444;7.460;2024-01-06T09:03:50;22.05;;;11.77;;
59054;SDS011;44845;51.444;7.460;2024-01-06T09:06:16;21.48;;;11.63;;
59054;SDS011;44845;51.444;7.460;2024-01-06T09:08:41;20.00;;;11.45;;
59054;SDS011;44845;51.444;7.460;2024-01-06T09:11:06;21.90;;;11.00;;
59054;SDS011;44845;51.444;7.460;2024-01-06T09:13:32;19.40;;;11.15;;
59054;SDS011;44845;51.444;7.460;2024-01-06T09:15:57;18.77;;;10.93;;
59054;SDS011;44845;51.444;7.460;2024-01-06T09:18:23;18.23;;;9.70;;
59054;SDS011;44845;51.444;7.460;2024-01-06T09:20:50;17.60;;;9.65;;
59054;SDS011;44845;51.444;7.460;2024-01-06T09:23:16;20.05;;;10.13;;
59054;SDS011;44845;51.444;7.460;2024-01-06T09:25:41;17.67;;;9.10;;
59054;SDS011;44845;51.444;7.460;2024-01-06T09:28:06;14.88;;;8.40;;
59054;SDS011;44845;51.444;7.460;2024-01-06T09:30:32;12.65;;;7.80;;
59054;SDS011;44845;51.444;7.460;2024-01-06T09:32:57;14.32;;;8.13;;
59054;SDS011;44845;51.444;7.460;2024-01-06T09:35:23;15.10;;;8.55;;
59054;SDS011;44845;51.444;7.460;2024-01-06T09:37:48;17.70;;;8.52;;
59054;SDS011;44845;51.444;7.460;2024-01-06T09:40:14;14.82;;;8.13;;
59054;SDS011;44845;51.444;7.460;2024-01-06T09:42:46;14.15;;;7.15;;
59054;SDS011;44845;51.444;7.460;2024-01-06T09:45:11;14.80;;;7.15;;
59054;SDS011;44845;51.444;7.460;2024-01-06T09:47:36;13.95;;;7.60;;
59054;SDS011;44845;51.444;7.460;2024-01-06T09:50:05;13.13;;;7.30;;
59054;SDS011;44845;51.444;7.460;2024-01-06T09:52:34;11.50;;;7.32;;
59054;SDS011;44845;51.444;7.460;2024-01-06T09:55:05;12.18;;;6.88;;
59054;SDS011;44845;51.444;7.460;2024-01-06T09:57:35;12.48;;;6.90;;
59054;SDS011;44845;51.444;7.460;2024-01-06T10:00:01;11.27;;;6.55;;
59054;SDS011;44845;51.444;7.460;2024-01-06T10:02:27;10.88;;;6.40;;
59054;SDS011;44845;51.444;7.460;2024-01-06T10:04:52;12.65;;;6.75;;
59054;SDS011;44845;51.444;7.460;2024-01-06T10:07:18;14.00;;;6.68;;
59054;SDS011;44845;51.444;7.460;2024-01-06T10:09:43;14.30;;;7.35;;
59054;SDS011;44845;51.444;7.460;2024-01-06T10:12:08;11.70;;;6.32;;
59054;SDS011;44845;51.444;7.460;2024-01-06T10:14:35;15.20;;;5.70;;
59054;SDS011;44845;51.444;7.460;2024-01-06T10:17:01;11.07;;;6.22;;
59054;SDS011;44845;51.444;7.460;2024-01-06T10:19:26;12.02;;;6.35;;
59054;SDS011;44845;51.444;7.460;2024-01-06T10:21:51;13.25;;;7.03;;
59054;SDS011;44845;51.444;7.460;2024-01-06T10:24:17;15.70;;;7.63;;
59054;SDS011;44845;51.444;7.460;2024-01-06T10:26:44;16.63;;;7.95;;
59054;SDS011;44845;51.444;7.460;2024-01-06T10:29:10;10.50;;;6.80;;
59054;SDS011;44845;51.444;7.460;2024-01-06T10:31:36;14.07;;;7.82;;
59054;SDS011;44845;51.444;7.460;2024-01-06T10:34:01;10.63;;;7.00;;
59054;SDS011;44845;51.444;7.460;2024-01-06T10:36:28;11.18;;;6.60;;
59054;SDS011;44845;51.444;7.460;2024-01-06T10:38:53;10.85;;;6.78;;
59054;SDS011;44845;51.444;7.460;2024-01-06T10:41:20;12.20;;;6.78;;
59054;SDS011;44845;51.444;7.460;2024-01-06T10:43:46;13.73;;;6.80;;
59054;SDS011;44845;51.444;7.460;2024-01-06T10:46:12;12.73;;;6.32;;
59054;SDS011;44845;51.444;7.460;2024-01-06T10:48:41;10.93;;;5.85;;
59054;SDS011;44845;51.444;7.460;2024-01-06T10:51:10;10.10;;;5.78;;
59054;SDS011;44845;51.444;7.460;2024-01-06T10:53:37;11.07;;;6.38;;
59054;SDS011;44845;51.444;7.460;2024-01-06T10:56:04;12.40;;;6.40;;
59054;SDS011;44845;51.444;7.460;2024-01-06T10:58:32;8.20;;;4.78;;
59054;SDS011;44845;51.444;7.460;2024-01-06T11:00:58;8.77;;;4.93;;
59054;SDS011;44845;51.444;7.460;2024-01-06T11:03:25;9.00;;;4.70;;
59054;SDS011;44845;51.444;7.460;2024-01-06T11:05:52;8.82;;;5.15;;
59054;SDS011;44845;51.444;7.460;2024-01-06T11:08:17;7.85;;;4.93;;
59054;SDS011;44845;51.444;7.460;2024-01-06T11:10:43;10.73;;;5.32;;
59054;SDS011;44845;51.444;7.460;2024-01-06T11:13:10;8.75;;;4.70;;
59054;SDS011;44845;51.444;7.460;2024-01-06T11:18:06;7.75;;;5.07;;
59054;SDS011;44845;51.444;7.460;2024-01-06T11:20:32;8.48;;;4.70;;
59054;SDS011;44845;51.444;7.460;2024-01-06T11:23:17;10.63;;;5.65;;
59054;SDS011;44845;51.444;7.460;2024-01-06T11:25:45;9.95;;;5.50;;
59054;SDS011;44845;51.444;7.460;2024-01-06T11:28:11;12.30;;;6.20;;
59054;SDS011;44845;51.444;7.460;2024-01-06T11:30:37;9.38;;;5.93;;
59054;SDS011;44845;51.444;7.460;2024-01-06T11:33:04;13.73;;;6.97;;
59054;SDS011;44845;51.444;7.460;2024-01-06T11:35:29;11.90;;;6.45;;
59054;SDS011;44845;51.444;7.460;2024-01-06T11:37:56;11.98;;;6.97;;
59054;SDS011;44845;51.444;7.460;2024-01-06T11:40:35;12.25;;;6.25;;
59054;SDS011;44845;51.444;7.460;2024-01-06T11:43:09;15.52;;;7.32;;
59054;SDS011;44845;51.444;7.460;2024-01-06T11:45:37;12.25;;;6.80;;
59054;SDS011;44845;51.444;7.460;2024-01-06T11:48:05;11.43;;;7.05;;
59054;SDS011;44845;51.444;7.460;2024-01-06T11:50:36;9.75;;;5.80;;
59054;SDS011;44845;51.444;7.460;2024-01-06T11:53:03;9.88;;;5.35;;
59054;SDS011;44845;51.444;7.460;2024-01-06T11:55:29;11.15;;;5.45;;
59054;SDS011;44845;51.444;7.460;2024-01-06T11:57:59;10.00;;;5.60;;
59054;SDS011;44845;51.444;7.460;2024-01-06T12:00:29;10.88;;;5.80;;
59054;SDS011;44845;51.444;7.460;2024-01-06T12:02:58;7.80;;;5.32;;
59054;SDS011;44845;51.444;7.460;2024-01-06T12:05:25;9.15;;;5.30;;
59054;SDS011;44845;51.444;7.460;2024-01-06T12:10:24;8.25;;;5.15;;
59054;SDS011;44845;51.444;7.460;2024-01-06T12:13:00;9.25;;;5.30;;
59054;SDS011;44845;51.444;7.460;2024-01-06T12:15:30;7.33;;;4.90;;
59054;SDS011;44845;51.444;7.460;2024-01-06T12:17:57;9.32;;;5.03;;
59054;SDS011;44845;51.444;7.460;2024-01-06T12:20:23;9.57;;;6.40;;
59054;SDS011;44845;51.444;7.460;2024-01-06T12:22:52;11.05;;;6.63;;
59054;SDS011;44845;51.444;7.460;2024-01-06T12:25:20;11.00;;;6.80;;
59054;SDS011;44845;51.444;7.460;2024-01-06T12:27:52;10.48;;;6.85;;
59054;SDS011;44845;51.444;7.460;2024-01-06T12:30:19;13.07;;;7.80;;
59054;SDS011;44845;51.444;7.460;2024-01-06T12:32:46;16.35;;;9.93;;
59054;SDS011;44845;51.444;7.460;2024-01-06T12:35:14;18.95;;;10.88;;
59054;SDS011;44845;51.444;7.460;2024-01-06T12:37:41;17.85;;;11.30;;
59054;SDS011;44845;51.444;7.460;2024-01-06T12:40:08;22.85;;;11.07;;
59054;SDS011;44845;51.444;7.460;2024-01-06T12:42:34;18.70;;;10.82;;
59054;SDS011;44845;51.444;7.460;2024-01-06T12:45:00;17.33;;;10.18;;
59054;SDS011;44845;51.444;7.460;2024-01-06T12:47:25;16.67;;;10.48;;
59054;SDS011;44845;51.444;7.460;2024-01-06T12:49:50;19.00;;;10.00;;
59054;SDS011;44845;51.444;7.460;2024-01-06T12:52:16;18.35;;;10.52;;
59054;SDS011;44845;51.444;7.460;2024-01-06T12:54:41;17.15;;;9.02;;
59054;SDS011;44845;51.444;7.460;2024-01-06T12:57:07;15.90;;;8.85;;
59054;SDS011;44845;51.444;7.460;2024-01-06T12:59:33;18.05;;;9.18;;
59054;SDS011;44845;51.444;7.460;2024-01-06T13:01:59;18.63;;;9.82;;
59054;SDS011;44845;51.444;7.460;2024-01-06T13:04:24;15.45;;;8.15;;
59054;SDS011;44845;51.444;7.460;2024-01-06T13:06:49;14.18;;;8.32;;
59054;SDS011;44845;51.444;7.460;2024-01-06T13:09:15;15.75;;;9.45;;
59054;SDS011;44845;51.444;7.460;2024-01-06T13:11:43;15.75;;;9.18;;
59054;SDS011;44845;51.444;7.460;2024-01-06T13:14:11;18.63;;;9.68;;
59054;SDS011;44845;51.444;7.460;2024-01-06T13:16:37;12.80;;;8.85;;
59054;SDS011;44845;51.444;7.460;2024-01-06T13:19:02;22.05;;;9.95;;
59054;SDS011;44845;51.444;7.460;2024-01-06T13:21:28;14.02;;;8.15;;
59054;SDS011;44845;51.444;7.460;2024-01-06T13:23:54;13.15;;;8.30;;
59054;SDS011;44845;51.444;7.460;2024-01-06T13:26:24;12.13;;;7.80;;
59054;SDS011;44845;51.444;7.460;2024-01-06T13:28:50;13.85;;;7.57;;
59054;SDS011;44845;51.444;7.460;2024-01-06T13:31:15;15.00;;;8.27;;
59054;SDS011;44845;51.444;7.460;2024-01-06T13:33:40;13.93;;;8.20;;
59054;SDS011;44845;51.444;7.460;2024-01-06T13:36:06;12.60;;;7.05;;
59054;SDS011;44845;51.444;7.460;2024-01-06T13:38:32;11.15;;;7.25;;
59054;SDS011;44845;51.444;7.460;2024-01-06T13:40:57;10.65;;;6.60;;
59054;SDS011;44845;51.444;7.460;2024-01-06T13:43:22;9.50;;;5.88;;
59054;SDS011;44845;51.444;7.460;2024-01-06T13:45:48;9.18;;;5.40;;
59054;SDS011;44845;51.444;7.460;2024-01-06T13:48:13;9.50;;;5.90;;
59054;SDS011;44845;51.444;7.460;2024-01-06T13:50:39;8.27;;;5.38;;
59054;SDS011;44845;51.444;7.460;2024-01-06T13:53:05;7.20;;;4.95;;
59054;SDS011;44845;51.444;7.460;2024-01-06T13:55:31;9.70;;;5.63;;
59054;SDS011;44845;51.444;7.460;2024-01-06T13:57:58;9.68;;;5.13;;
59054;SDS011;44845;51.444;7.460;2024-01-06T14:00:23;8.48;;;5.25;;
59054;SDS011;44845;51.444;7.460;2024-01-06T14:02:49;9.07;;;5.30;;
59054;SDS011;44845;51.444;7.460;2024-01-06T14:05:15;9.23;;;5.82;;
59054;SDS011;44845;51.444;7.460;2024-01-06T14:07:41;9.82;;;5.70;;
59054;SDS011;44845;51.444;7.460;2024-01-06T14:10:10;9.63;;;5.68;;
59054;SDS011;44845;51.444;7.460;2024-01-06T14:12:39;11.20;;;5.68;;
59054;SDS011;44845;51.444;7.460;2024-01-06T14:15:05;7.68;;;5.40;;
59054;SDS011;44845;51.444;7.460;2024-01-06T14:17:31;9.82;;;5.97;;
59054;SDS011;44845;51.444;7.460;2024-01-06T14:19:57;9.68;;;6.35;;
59054;SDS011;44845;51.444;7.460;2024-01-06T14:22:22;10.00;;;5.45;;
59054;SDS011;44845;51.444;7.460;2024-01-06T14:24:48;9.00;;;4.95;;
59054;SDS011;44845;51.444;7.460;2024-01-06T14:27:14;11.23;;;5.70;;
59054;SDS011;44845;51.444;7.460;2024-01-06T14:29:40;10.20;;;5.22;;
59054;SDS011;44845;51.444;7.460;2024-01-06T14:32:06;8.57;;;5.15;;
59054;SDS011;44845;51.444;7.460;2024-01-06T14:34:31;8.52;;;4.82;;
59054;SDS011;44845;51.444;7.460;2024-01-06T14:36:57;10.50;;;5.40;;
59054;SDS011;44845;51.444;7.460;2024-01-06T14:39:22;8.93;;;5.35;;
59054;SDS011;44845;51.444;7.460;2024-01-06T14:41:48;10.27;;;6.30;;
59054;SDS011;44845;51.444;7.460;2024-01-06T14:44:14;7.80;;;4.97;;